createdAt,value
2017-08-11T00:02:22.980Z,74.30
2017-08-11T00:04:52.576Z,74.54
2017-08-11T00:07:22.110Z,74.53
2017-08-11T00:09:51.319Z,74.25
2017-08-11T00:12:21.047Z,74.31
2017-08-11T00:14:51.412Z,73.92
2017-08-11T00:17:20.978Z,73.79
2017-08-11T00:19:51.277Z,73.52
2017-08-11T00:22:20.836Z,73.47
2017-08-11T00:24:50.392Z,72.84
2017-08-11T00:27:19.786Z,73.09
2017-08-11T00:29:49.335Z,73.20
2017-08-11T00:32:19.686Z,72.51
2017-08-11T00:34:49.229Z,72.85
2017-08-11T00:37:18.809Z,72.77
2017-08-11T00:39:48.341Z,73.04
2017-08-11T00:42:17.858Z,72.59
2017-08-11T00:44:47.436Z,72.78
2017-08-11T00:47:16.995Z,72.86
2017-08-11T00:49:47.307Z,72.93
2017-08-11T00:52:16.872Z,72.97
2017-08-11T00:54:46.413Z,73.17
2017-08-11T00:57:15.955Z,73.26
2017-08-11T00:59:45.502Z,73.58
2017-08-11T01:02:15.014Z,73.74
2017-08-11T01:04:44.559Z,74.04
2017-08-11T01:07:14.088Z,73.93
2017-08-11T01:09:43.660Z,74.07
2017-08-11T01:12:14.001Z,74.07
2017-08-11T01:14:44.325Z,73.92
2017-08-11T01:17:14.885Z,74.56
2017-08-11T01:19:44.109Z,74.18
2017-08-11T01:22:13.685Z,74.34
2017-08-11T01:24:43.220Z,74.29
2017-08-11T01:27:12.802Z,74.79
2017-08-11T01:29:42.152Z,74.62
2017-08-11T01:32:11.663Z,74.28
2017-08-11T01:34:41.225Z,74.80
2017-08-11T01:37:10.766Z,75.23
2017-08-11T01:39:39.996Z,75.38
2017-08-11T01:42:10.311Z,74.86
2017-08-11T01:44:40.290Z,74.09
2017-08-11T01:47:09.490Z,73.68
2017-08-11T01:49:38.349Z,73.61
2017-08-11T01:52:07.563Z,73.21
2017-08-11T01:54:37.087Z,72.17
2017-08-11T01:57:06.637Z,72.04
2017-08-11T01:59:36.575Z,72.98
2017-08-11T02:02:06.137Z,73.22
2017-08-11T02:04:35.659Z,72.54
2017-08-11T02:07:04.520Z,73.70
2017-08-11T02:09:33.725Z,73.82
2017-08-11T02:12:03.247Z,75.08
2017-08-11T02:14:32.786Z,74.76
2017-08-11T02:17:02.338Z,74.29
2017-08-11T02:19:31.857Z,74.42
2017-08-11T02:22:01.421Z,74.93
2017-08-11T02:24:30.298Z,74.96
2017-08-11T02:26:59.489Z,74.84
2017-08-11T02:29:29.791Z,74.73
2017-08-11T02:31:59.338Z,74.93
2017-08-11T02:34:28.880Z,75.16
2017-08-11T02:36:58.415Z,75.13
2017-08-11T02:39:28.719Z,74.45
2017-08-11T02:41:58.252Z,74.58
2017-08-11T02:44:28.817Z,73.98
2017-08-11T02:46:58.370Z,73.21
2017-08-11T02:49:27.898Z,72.76
2017-08-11T02:51:57.446Z,71.99
2017-08-11T02:54:26.978Z,73.21
2017-08-11T02:56:56.533Z,73.34
2017-08-11T02:59:26.060Z,73.17
2017-08-11T03:01:55.729Z,73.29
2017-08-11T03:04:26.244Z,72.86
2017-08-11T03:06:55.772Z,73.42
2017-08-11T03:09:25.312Z,73.85
2017-08-11T03:11:54.888Z,73.62
2017-08-11T03:14:25.201Z,73.63
2017-08-11T03:16:55.493Z,73.65
2017-08-11T03:19:25.050Z,74.38
2017-08-11T03:21:54.210Z,73.89
2017-08-11T03:24:23.725Z,73.89
2017-08-11T03:26:53.254Z,74.57
2017-08-11T03:29:23.584Z,74.19
2017-08-11T03:31:53.109Z,74.18
2017-08-11T03:34:22.654Z,73.66
2017-08-11T03:36:52.331Z,74.40
2017-08-11T03:39:21.888Z,73.81
2017-08-11T03:41:51.444Z,73.88
2017-08-11T03:44:20.987Z,73.49
2017-08-11T03:46:49.851Z,72.93
2017-08-11T03:49:19.413Z,72.78
2017-08-11T03:51:49.633Z,72.77
2017-08-11T03:54:19.949Z,74.44
2017-08-11T03:56:50.279Z,73.39
2017-08-11T03:59:20.557Z,73.96
2017-08-11T04:01:50.112Z,74.64
2017-08-11T04:04:20.432Z,74.48
2017-08-11T04:06:50.950Z,74.25
2017-08-11T04:09:20.139Z,73.90
2017-08-11T04:11:49.713Z,73.53
2017-08-11T04:14:19.256Z,73.12
2017-08-11T04:16:48.793Z,72.45
2017-08-11T04:19:19.127Z,71.58
2017-08-11T04:21:48.739Z,72.30
2017-08-11T04:24:18.262Z,72.44
2017-08-11T04:26:47.811Z,71.36
2017-08-11T04:29:17.353Z,70.62
2017-08-11T04:31:46.902Z,70.69
2017-08-11T04:34:16.464Z,70.24
2017-08-11T04:36:46.011Z,70.17
2017-08-11T04:39:15.542Z,68.82
2017-08-11T04:41:45.092Z,69.42
2017-08-11T04:44:14.641Z,69.44
2017-08-11T04:46:44.189Z,68.94
2017-08-11T04:49:14.507Z,69.11
2017-08-11T04:51:44.791Z,68.40
2017-08-11T04:54:14.334Z,67.75
2017-08-11T04:56:44.641Z,66.89
2017-08-11T04:59:14.251Z,66.52
2017-08-11T05:01:43.802Z,65.77
2017-08-11T05:04:13.007Z,64.85
2017-08-11T05:06:42.578Z,64.56
2017-08-11T05:09:12.908Z,66.59
2017-08-11T05:11:43.225Z,67.46
2017-08-11T05:14:13.800Z,68.81
2017-08-11T05:16:43.325Z,69.31
2017-08-11T05:19:12.866Z,68.44
2017-08-11T05:21:43.201Z,67.66
2017-08-11T05:24:13.506Z,68.64
2017-08-11T05:26:43.046Z,67.85
2017-08-11T05:29:12.601Z,68.63
2017-08-11T05:31:42.125Z,68.39
2017-08-11T05:34:11.744Z,68.88
2017-08-11T05:36:42.065Z,67.70
2017-08-11T05:39:11.597Z,68.04
2017-08-11T05:41:41.168Z,68.52
2017-08-11T05:44:10.721Z,68.50
2017-08-11T05:46:40.245Z,67.57
2017-08-11T05:49:09.611Z,67.42
2017-08-11T05:51:39.172Z,67.13
2017-08-11T05:54:08.697Z,66.49
2017-08-11T05:56:38.355Z,65.83
2017-08-11T05:59:07.883Z,65.30
2017-08-11T06:01:37.453Z,64.42
2017-08-11T06:04:07.001Z,63.76
2017-08-11T06:06:36.555Z,63.31
2017-08-11T06:09:06.513Z,64.38
2017-08-11T06:11:36.070Z,64.76
2017-08-11T06:14:06.433Z,63.64
2017-08-11T06:16:35.979Z,63.31
2017-08-11T06:19:05.581Z,63.36
2017-08-11T06:21:35.224Z,63.20
2017-08-11T06:24:05.753Z,61.61
2017-08-11T06:26:36.042Z,61.05
2017-08-11T06:29:05.603Z,60.58
2017-08-11T06:31:35.193Z,59.98
2017-08-11T06:34:05.497Z,60.00
2017-08-11T06:36:35.054Z,58.90
2017-08-11T06:39:03.980Z,59.66
2017-08-11T06:41:33.586Z,60.66
2017-08-11T06:44:03.144Z,59.93
2017-08-11T06:46:32.684Z,59.02
2017-08-11T06:49:02.246Z,57.89
2017-08-11T06:51:32.620Z,59.03
2017-08-11T06:54:02.166Z,59.90
2017-08-11T06:56:31.712Z,60.55
2017-08-11T06:59:01.309Z,59.88
2017-08-11T07:01:30.831Z,59.37
2017-08-11T07:04:00.401Z,59.27
2017-08-11T07:06:30.712Z,59.81
2017-08-11T07:09:00.278Z,59.44
2017-08-11T07:11:29.505Z,58.88
2017-08-11T07:13:58.690Z,57.24
2017-08-11T07:16:28.294Z,55.32
2017-08-11T07:18:57.845Z,53.96
2017-08-11T07:21:28.165Z,53.99
2017-08-11T07:23:57.706Z,54.45
2017-08-11T07:26:27.233Z,55.15
2017-08-11T07:28:56.779Z,56.02
2017-08-11T07:31:26.319Z,56.10
2017-08-11T07:33:55.912Z,56.42
2017-08-11T07:36:25.849Z,56.41
2017-08-11T07:38:55.416Z,56.05
2017-08-11T07:41:24.909Z,56.34
2017-08-11T07:43:54.429Z,55.71
2017-08-11T07:46:23.517Z,56.17
2017-08-11T07:48:53.083Z,56.66
2017-08-11T07:51:22.650Z,57.31
2017-08-11T07:53:53.015Z,56.64
2017-08-11T07:56:22.551Z,57.34
2017-08-11T07:58:52.175Z,57.71
2017-08-11T08:01:21.780Z,57.72
2017-08-11T08:03:51.293Z,58.74
2017-08-11T08:06:20.869Z,59.87
2017-08-11T08:08:50.026Z,58.18
2017-08-11T08:11:19.579Z,57.68
2017-08-11T08:13:49.133Z,57.75
2017-08-11T08:16:19.426Z,58.52
2017-08-11T08:18:49.004Z,59.43
2017-08-11T08:21:18.569Z,59.06
2017-08-11T08:23:48.845Z,59.44
2017-08-11T08:26:18.402Z,57.35
2017-08-11T08:28:48.706Z,59.19
2017-08-11T08:31:18.281Z,59.57
2017-08-11T08:33:47.803Z,57.98
2017-08-11T08:36:17.341Z,59.03
2017-08-11T08:38:47.629Z,59.89
2017-08-11T08:41:17.175Z,61.89
2017-08-11T08:43:47.274Z,63.29
2017-08-11T08:46:16.815Z,64.29
2017-08-11T08:48:46.335Z,64.98
2017-08-11T08:51:15.947Z,67.20
2017-08-11T08:53:45.600Z,68.89
2017-08-11T08:56:15.122Z,69.35
2017-08-11T08:58:45.430Z,68.15
2017-08-11T09:01:14.989Z,66.58
2017-08-11T09:03:44.647Z,65.94
2017-08-11T09:06:14.418Z,66.53
2017-08-11T09:08:43.954Z,66.94
2017-08-11T09:11:13.475Z,67.07
2017-08-11T09:13:43.033Z,66.92
2017-08-11T09:16:12.577Z,66.98
2017-08-11T09:18:42.129Z,65.65
2017-08-11T09:21:11.319Z,63.61
2017-08-11T09:23:40.870Z,64.42
2017-08-11T09:29:43.263Z,61.30
2017-08-11T09:32:28.021Z,60.85
2017-08-11T09:35:12.810Z,60.33
2017-08-11T09:37:38.919Z,56.86
2017-08-11T09:40:05.055Z,56.70
2017-08-11T09:42:31.183Z,57.31
2017-08-11T09:44:57.303Z,58.68
2017-08-11T09:47:23.428Z,61.09
2017-08-11T09:49:49.582Z,60.73
2017-08-11T09:52:15.715Z,60.79
2017-08-11T09:54:41.801Z,59.41
2017-08-11T09:57:07.932Z,57.19
2017-08-11T09:59:34.050Z,57.13
2017-08-11T10:02:00.127Z,54.65
2017-08-11T10:04:27.006Z,52.83
2017-08-11T10:06:53.089Z,52.83
2017-08-11T10:09:19.233Z,53.74
2017-08-11T10:11:45.919Z,52.59
2017-08-11T10:14:12.061Z,54.61
2017-08-11T10:16:38.213Z,54.94
2017-08-11T10:19:05.114Z,54.95
2017-08-11T10:21:31.253Z,55.91
2017-08-11T10:23:57.409Z,57.05
2017-08-11T10:26:24.289Z,57.98
2017-08-11T10:28:50.403Z,57.29
2017-08-11T10:31:16.537Z,56.31
2017-08-11T10:33:42.618Z,56.23
2017-08-11T10:36:08.732Z,56.60
2017-08-11T10:38:34.851Z,57.42
2017-08-11T10:41:00.984Z,57.48
2017-08-11T10:43:27.132Z,58.20
2017-08-11T10:45:53.283Z,57.25
2017-08-11T10:48:19.426Z,58.32
2017-08-11T10:50:45.557Z,57.98
2017-08-11T10:53:11.723Z,57.28
2017-08-11T10:55:37.825Z,57.97
2017-08-11T10:58:03.986Z,59.63
2017-08-11T11:00:30.109Z,60.44
2017-08-11T11:02:56.313Z,60.96
2017-08-11T11:05:22.430Z,62.03
2017-08-11T11:07:48.555Z,62.34
2017-08-11T11:10:14.661Z,63.11
2017-08-11T11:12:40.764Z,63.67
2017-08-11T11:15:07.609Z,64.07
2017-08-11T11:17:34.497Z,65.25
2017-08-11T11:20:00.577Z,65.64
2017-08-11T11:22:27.501Z,63.99
2017-08-11T11:24:53.640Z,61.50
2017-08-11T11:27:20.458Z,60.01
2017-08-11T11:29:46.519Z,59.77
2017-08-11T11:32:13.410Z,58.60
2017-08-11T11:34:39.498Z,59.41
2017-08-11T11:37:05.664Z,59.18
2017-08-11T11:39:31.786Z,58.73
2017-08-11T11:41:57.907Z,59.11
2017-08-11T11:44:24.024Z,58.89
2017-08-11T11:46:50.165Z,59.64
2017-08-11T11:49:16.291Z,57.60
2017-08-11T11:51:42.433Z,59.18
2017-08-11T11:54:08.552Z,59.59
2017-08-11T11:56:34.675Z,61.10
2017-08-11T11:59:00.793Z,62.10
2017-08-11T12:01:26.941Z,63.39
2017-08-11T12:03:53.082Z,66.11
2017-08-11T12:06:19.272Z,69.27
2017-08-11T12:08:45.376Z,71.00
2017-08-11T12:11:11.469Z,69.98
2017-08-11T12:13:37.574Z,70.01
2017-08-11T12:16:03.646Z,69.26
2017-08-11T12:18:29.706Z,67.98
2017-08-11T12:20:55.872Z,67.28
2017-08-11T12:23:21.958Z,67.31
2017-08-11T12:25:48.075Z,66.33
2017-08-11T12:28:14.210Z,65.73
2017-08-11T12:30:40.331Z,64.52
2017-08-11T12:33:06.408Z,61.96
2017-08-11T12:35:33.262Z,59.44
2017-08-11T12:38:00.084Z,60.06
2017-08-11T12:40:26.210Z,58.96
2017-08-11T12:42:52.308Z,57.54
2017-08-11T12:45:18.442Z,58.92
2017-08-11T12:47:44.594Z,61.92
2017-08-11T12:50:10.648Z,64.38
2017-08-11T12:52:36.770Z,62.11
2017-08-11T12:55:02.890Z,63.70
2017-08-11T12:57:29.716Z,64.02
2017-08-11T12:59:55.828Z,64.93
2017-08-11T13:02:21.979Z,65.74
2017-08-11T13:04:48.818Z,66.83
2017-08-11T13:07:15.656Z,66.78
2017-08-11T13:09:41.748Z,67.04
2017-08-11T13:12:07.839Z,67.37
2017-08-11T13:14:33.918Z,68.18
2017-08-11T13:17:00.809Z,68.13
2017-08-11T13:19:26.903Z,69.23
2017-08-11T13:21:53.788Z,69.25
2017-08-11T13:24:19.905Z,70.09
2017-08-11T13:26:46.065Z,70.32
2017-08-11T13:29:12.188Z,70.72
2017-08-11T13:31:38.348Z,69.70
2017-08-11T13:34:04.495Z,71.46
2017-08-11T13:36:31.397Z,72.15
2017-08-11T13:38:57.517Z,72.70
2017-08-11T13:41:23.616Z,72.11
2017-08-11T13:43:50.637Z,72.52
2017-08-11T13:46:17.479Z,72.43
2017-08-11T13:48:44.425Z,72.42
2017-08-11T13:51:11.228Z,72.46
2017-08-11T13:53:37.337Z,73.01
2017-08-11T13:56:03.524Z,72.51
2017-08-11T13:58:30.402Z,74.01
2017-08-11T14:00:56.499Z,74.84
2017-08-11T14:03:23.344Z,76.02
2017-08-11T14:05:50.240Z,78.22
2017-08-11T14:08:16.352Z,79.87
2017-08-11T14:10:42.462Z,80.10
2017-08-11T14:13:08.587Z,79.31
2017-08-11T14:15:34.672Z,78.29
2017-08-11T14:18:01.559Z,78.02
2017-08-11T14:20:27.672Z,77.07
2017-08-11T14:22:53.794Z,76.60
2017-08-11T14:25:19.960Z,75.73
2017-08-11T14:27:46.076Z,74.84
2017-08-11T14:30:12.190Z,75.54
2017-08-11T14:32:38.362Z,74.58
2017-08-11T14:35:04.501Z,75.02
2017-08-11T14:37:30.675Z,75.47
2017-08-11T14:39:56.831Z,77.58
2017-08-11T14:42:22.918Z,78.77
2017-08-11T14:44:49.049Z,79.11
2017-08-11T14:47:15.174Z,80.24
2017-08-11T14:49:41.260Z,79.21
2017-08-11T14:52:07.476Z,77.64
2017-08-11T14:54:33.560Z,78.26
2017-08-11T14:56:59.674Z,76.74
2017-08-11T14:59:25.818Z,75.90
2017-08-11T15:01:52.020Z,75.51
2017-08-11T15:04:18.176Z,74.96
2017-08-11T15:06:44.323Z,74.24
2017-08-11T15:09:10.635Z,73.36
2017-08-11T15:11:36.780Z,74.23
2017-08-11T15:14:02.947Z,74.52
2017-08-11T15:16:29.209Z,73.46
2017-08-11T15:18:55.590Z,72.15
2017-08-11T15:21:21.696Z,68.74
2017-08-11T15:23:48.886Z,69.50
2017-08-11T15:26:15.744Z,69.65
2017-08-11T15:28:41.865Z,67.98
2017-08-11T15:31:08.084Z,68.05
2017-08-11T15:33:34.939Z,68.32
2017-08-11T15:36:01.064Z,68.24
2017-08-11T15:38:27.215Z,66.58
2017-08-11T15:40:53.395Z,67.37
2017-08-11T15:43:19.547Z,69.19
2017-08-11T15:45:45.626Z,68.45
2017-08-11T15:48:11.803Z,68.23
2017-08-11T15:50:37.979Z,70.35
2017-08-11T15:53:04.094Z,68.36
2017-08-11T15:55:30.202Z,65.56
2017-08-11T15:57:56.364Z,66.99
2017-08-11T16:00:22.522Z,66.54
2017-08-11T16:02:49.417Z,67.31
2017-08-11T16:05:15.537Z,64.73
2017-08-11T16:07:41.620Z,65.22
2017-08-11T16:10:07.739Z,66.21
2017-08-11T16:12:34.644Z,66.29
2017-08-11T16:15:00.874Z,67.12
2017-08-11T16:17:26.981Z,65.70
2017-08-11T16:19:53.097Z,65.02
2017-08-11T16:22:19.220Z,66.10
2017-08-11T16:24:45.433Z,65.16
2017-08-11T16:27:12.260Z,62.89
2017-08-11T16:29:39.188Z,63.35
2017-08-11T16:32:05.622Z,63.90
2017-08-11T16:34:31.706Z,63.97
2017-08-11T16:36:57.806Z,65.45
2017-08-11T16:39:24.657Z,65.27
2017-08-11T16:41:50.800Z,63.24
2017-08-11T16:44:16.930Z,60.22
2017-08-11T16:46:43.176Z,60.07
2017-08-11T16:49:09.364Z,62.27
2017-08-11T16:51:35.507Z,64.81
2017-08-11T16:54:01.646Z,64.66
2017-08-11T16:56:27.858Z,62.97
2017-08-11T16:58:53.994Z,62.74
2017-08-11T17:01:20.168Z,62.69
2017-08-11T17:03:46.312Z,62.98
2017-08-11T17:06:13.136Z,63.50
2017-08-11T17:08:39.305Z,64.70
2017-08-11T17:11:05.419Z,65.01
2017-08-11T17:13:32.254Z,67.75
2017-08-11T17:15:59.167Z,69.11
2017-08-11T17:18:25.355Z,71.06
2017-08-11T17:20:51.491Z,72.58
2017-08-11T17:23:17.702Z,72.90
2017-08-11T17:25:43.891Z,72.93
2017-08-11T17:28:10.011Z,72.90
2017-08-11T17:30:36.181Z,73.12
2017-08-11T17:33:02.381Z,72.79
2017-08-11T17:35:29.289Z,73.26
2017-08-11T17:37:55.421Z,73.25
2017-08-11T17:40:21.571Z,72.95
2017-08-11T17:42:47.696Z,72.56
2017-08-11T17:45:13.858Z,72.20
2017-08-11T17:47:39.979Z,72.52
2017-08-11T17:50:06.871Z,72.79
2017-08-11T17:52:32.979Z,73.37
2017-08-11T17:54:59.100Z,73.19
2017-08-11T17:57:25.205Z,72.22
2017-08-11T17:59:51.357Z,72.10
2017-08-11T18:02:17.525Z,71.80
2017-08-11T18:04:43.707Z,71.74
2017-08-11T18:07:10.206Z,72.02
2017-08-11T18:09:36.363Z,71.05
2017-08-11T18:12:02.505Z,71.14
2017-08-11T18:14:28.624Z,70.88
2017-08-11T18:16:54.754Z,71.34
2017-08-11T18:19:20.897Z,72.50
2017-08-11T18:21:47.034Z,73.56
2017-08-11T18:24:13.188Z,74.26
2017-08-11T18:26:40.091Z,74.10
2017-08-11T18:29:06.194Z,75.38
2017-08-11T18:31:32.262Z,75.54
2017-08-11T18:33:58.425Z,76.24
2017-08-11T18:36:25.305Z,76.70
2017-08-11T18:38:51.411Z,77.14
2017-08-11T18:41:17.558Z,77.10
2017-08-11T18:43:43.663Z,77.52
2017-08-11T18:46:09.863Z,77.70
2017-08-11T18:48:36.717Z,77.84
2017-08-11T18:51:03.618Z,78.07
2017-08-11T18:53:29.778Z,78.66
2017-08-11T18:55:56.668Z,78.64
2017-08-11T18:58:22.812Z,79.00
2017-08-11T19:00:48.936Z,78.95
2017-08-11T19:03:15.101Z,78.88
2017-08-11T19:05:42.012Z,78.91
2017-08-11T19:08:08.095Z,79.46
2017-08-11T19:10:34.194Z,79.48
2017-08-11T19:13:01.152Z,79.06
2017-08-11T19:15:27.993Z,79.50
2017-08-11T19:17:54.906Z,79.04
2017-08-11T19:20:21.057Z,78.36
2017-08-11T19:22:47.181Z,76.92
2017-08-11T19:25:14.031Z,76.33
2017-08-11T19:27:41.130Z,76.40
2017-08-11T19:30:07.271Z,76.59
2017-08-11T19:32:33.457Z,76.70
2017-08-11T19:34:59.601Z,76.94
2017-08-11T19:37:25.787Z,77.57
2017-08-11T19:39:52.699Z,77.29
2017-08-11T19:42:18.823Z,77.55
2017-08-11T19:44:44.963Z,77.90
2017-08-11T19:47:11.570Z,77.07
2017-08-11T19:49:38.002Z,77.15
2017-08-11T19:52:04.141Z,77.39
2017-08-11T19:54:30.507Z,77.63
2017-08-11T19:56:56.608Z,77.66
2017-08-11T19:59:22.763Z,77.25
2017-08-11T20:01:49.018Z,77.21
2017-08-11T20:04:15.117Z,76.64
2017-08-11T20:06:42.018Z,76.33
2017-08-11T20:09:08.141Z,75.67
2017-08-11T20:11:34.261Z,75.23
2017-08-11T20:14:00.355Z,75.18
2017-08-11T20:16:27.250Z,75.48
2017-08-11T20:18:53.384Z,75.49
2017-08-11T20:21:19.515Z,75.47
2017-08-11T20:23:45.622Z,75.79
2017-08-11T20:26:11.745Z,75.49
2017-08-11T20:28:37.936Z,76.23
2017-08-11T20:31:05.070Z,76.48
2017-08-11T20:33:31.255Z,75.31
2017-08-11T20:35:57.361Z,75.49
2017-08-11T20:38:23.592Z,75.27
2017-08-11T20:40:49.748Z,75.07
2017-08-11T20:43:16.013Z,75.99
2017-08-11T20:45:42.911Z,76.07
2017-08-11T20:48:10.088Z,75.67
2017-08-11T20:50:36.191Z,76.35
2017-08-11T20:53:02.334Z,76.14
2017-08-11T20:55:28.486Z,76.43
2017-08-11T20:57:54.563Z,75.92
2017-08-11T21:00:20.713Z,76.05
2017-08-11T21:02:46.815Z,75.41
2017-08-11T21:05:12.944Z,75.22
2017-08-11T21:07:39.086Z,75.04
2017-08-11T21:10:05.440Z,74.96
2017-08-11T21:12:32.304Z,74.61
2017-08-11T21:14:59.234Z,73.95
2017-08-11T21:17:25.340Z,73.60
2017-08-11T21:19:51.472Z,72.87
2017-08-11T21:22:17.633Z,72.49
2017-08-11T21:24:44.517Z,72.93
2017-08-11T21:27:10.620Z,72.06
2017-08-11T21:29:36.719Z,72.58
2017-08-11T21:32:04.563Z,72.23
2017-08-11T21:34:30.701Z,71.68
2017-08-11T21:36:56.853Z,71.12
2017-08-11T21:39:23.765Z,70.56
2017-08-11T21:41:49.889Z,70.60
2017-08-11T21:44:16.070Z,69.92
2017-08-11T21:46:42.202Z,69.89
2017-08-11T21:49:08.545Z,70.18
2017-08-11T21:51:34.685Z,69.94
2017-08-11T21:54:00.771Z,69.48
2017-08-11T21:56:26.869Z,68.96
2017-08-11T21:58:53.026Z,70.27
2017-08-11T22:01:19.159Z,70.76
2017-08-11T22:03:45.305Z,70.93
2017-08-11T22:06:11.430Z,71.21
2017-08-11T22:08:37.511Z,69.59
2017-08-11T22:11:04.432Z,69.95
2017-08-11T22:13:30.531Z,69.83
2017-08-11T22:15:56.647Z,70.47
2017-08-11T22:18:22.775Z,70.73
2017-08-11T22:20:48.839Z,70.46
2017-08-11T22:23:14.963Z,70.76
2017-08-11T22:25:41.113Z,70.28
2017-08-11T22:28:08.016Z,70.58
2017-08-11T22:30:34.121Z,71.13
2017-08-11T22:33:00.327Z,70.90
2017-08-11T22:35:26.433Z,71.30
2017-08-11T22:37:53.411Z,72.21
2017-08-11T22:40:19.484Z,72.92
2017-08-11T22:42:45.690Z,73.06
2017-08-11T22:45:11.852Z,72.55
2017-08-11T22:47:37.986Z,72.67
2017-08-11T22:50:04.784Z,73.04
2017-08-11T22:52:30.898Z,72.20
2017-08-11T22:54:57.262Z,72.49
2017-08-11T22:57:23.406Z,72.41
2017-08-11T22:59:50.242Z,71.92
2017-08-11T23:02:16.603Z,72.45
2017-08-11T23:04:42.708Z,71.64
2017-08-11T23:07:09.622Z,71.55
2017-08-11T23:09:36.434Z,71.60
2017-08-11T23:12:02.538Z,72.52
2017-08-11T23:14:30.364Z,73.25
2017-08-11T23:16:56.483Z,73.32
2017-08-11T23:19:22.733Z,72.87
2017-08-11T23:21:48.835Z,73.24
2017-08-11T23:24:14.984Z,73.17
2017-08-11T23:26:41.122Z,73.53
2017-08-11T23:29:07.985Z,74.47
2017-08-11T23:31:34.077Z,75.16
2017-08-11T23:34:00.191Z,75.40
2017-08-11T23:36:26.301Z,76.28
2017-08-11T23:38:52.431Z,77.12
2017-08-11T23:41:18.551Z,77.57
2017-08-11T23:43:44.695Z,77.55
2017-08-11T23:46:10.817Z,77.02
2017-08-11T23:48:36.974Z,76.90
2017-08-11T23:51:03.082Z,75.76
2017-08-11T23:53:29.224Z,75.60
2017-08-11T23:55:55.329Z,76.36
2017-08-11T23:58:21.423Z,76.66
